sensor_id;sensor_type;location;lat;lon;timestamp;pressure;altitude;pressure_sealevel;temperature;humidity
20003;BME280;10162;41.600;23.806;2023-07-13T00:02:07;95464.06;;;20.70;100.00
20003;BME280;10162;41.600;23.806;2023-07-13T00:08:30;95494.38;;;20.74;100.00
20003;BME280;10162;41.600;23.806;2023-07-13T00:10:58;95496.53;;;20.34;100.00
20003;BME280;10162;41.600;23.806;2023-07-13T00:17:19;95498.63;;;20.10;100.00
20003;BME280;10162;41.600;23.806;2023-07-13T00:19:44;95493.81;;;19.90;100.00
20003;BME280;10162;41.600;23.806;2023-07-13T00:22:11;95483.50;;;20.10;100.00
20003;BME280;10162;41.600;23.806;2023-07-13T00:28:34;95499.50;;;20.15;100.00
20003;BME280;10162;41.600;23.806;2023-07-13T00:31:01;95469.63;;;19.87;100.00
20003;BME280;10162;41.600;23.806;2023-07-13T00:37:21;95487.31;;;19.81;100.00
20003;BME280;10162;41.600;23.806;2023-07-13T00:39:47;95463.91;;;19.78;100.00
20003;BME280;10162;41.600;23.806;2023-07-13T00:42:14;95463.50;;;19.86;100.00
20003;BME280;10162;41.600;23.806;2023-07-13T00:48:19;95479.28;;;19.59;100.00
20003;BME280;10162;41.600;23.806;2023-07-13T00:50:50;95473.34;;;19.52;100.00
20003;BME280;10162;41.600;23.806;2023-07-13T00:57:15;95490.53;;;19.83;100.00
20003;BME280;10162;41.600;23.806;2023-07-13T00:59:46;95480.16;;;19.82;100.00
20003;BME280;10162;41.600;23.806;2023-07-13T01:02:13;95481.44;;;19.79;100.00
20003;BME280;10162;41.600;23.806;2023-07-13T01:05:04;95489.25;;;19.35;100.00
20003;BME280;10162;41.600;23.806;2023-07-13T01:07:34;95481.91;;;19.42;100.00
20003;BME280;10162;41.600;23.806;2023-07-13T01:09:59;95480.00;;;19.55;100.00
20003;BME280;10162;41.600;23.806;2023-07-13T01:12:25;95468.78;;;19.48;100.00
20003;BME280;10162;41.600;23.806;2023-07-13T01:18:44;95481.25;;;19.47;100.00
20003;BME280;10162;41.600;23.806;2023-07-13T01:21:12;95478.22;;;19.27;100.00
20003;BME280;10162;41.600;23.806;2023-07-13T01:27:34;95481.50;;;19.34;100.00
20003;BME280;10162;41.600;23.806;2023-07-13T01:30:00;95467.13;;;19.30;100.00
20003;BME280;10162;41.600;23.806;2023-07-13T01:32:29;95493.28;;;19.55;100.00
20003;BME280;10162;41.600;23.806;2023-07-13T01:38:51;95471.81;;;18.94;100.00
20003;BME280;10162;41.600;23.806;2023-07-13T01:41:18;95487.63;;;19.34;100.00
20003;BME280;10162;41.600;23.806;2023-07-13T01:47:38;95489.59;;;19.11;100.00
20003;BME280;10162;41.600;23.806;2023-07-13T01:50:05;95484.34;;;18.99;100.00
20003;BME280;10162;41.600;23.806;2023-07-13T01:52:31;95507.19;;;19.17;100.00
20003;BME280;10162;41.600;23.806;2023-07-13T01:55:31;95516.63;;;19.24;100.00
20003;BME280;10162;41.600;23.806;2023-07-13T01:57:58;95500.22;;;19.44;100.00
20003;BME280;10162;41.600;23.806;2023-07-13T02:00:24;95501.69;;;18.90;100.00
20003;BME280;10162;41.600;23.806;2023-07-13T02:05:47;95485.41;;;18.70;100.00
20003;BME280;10162;41.600;23.806;2023-07-13T02:08:13;95504.56;;;18.60;100.00
20003;BME280;10162;41.600;23.806;2023-07-13T02:10:39;95494.28;;;18.64;100.00
20003;BME280;10162;41.600;23.806;2023-07-13T02:16:59;95495.47;;;19.13;100.00
20003;BME280;10162;41.600;23.806;2023-07-13T02:19:25;95509.78;;;18.83;100.00
20003;BME280;10162;41.600;23.806;2023-07-13T02:21:51;95494.47;;;18.34;100.00
20003;BME280;10162;41.600;23.806;2023-07-13T02:24:54;95510.44;;;18.50;100.00
20003;BME280;10162;41.600;23.806;2023-07-13T02:27:20;95509.03;;;18.60;100.00
20003;BME280;10162;41.600;23.806;2023-07-13T02:29:51;95500.91;;;18.38;100.00
20003;BME280;10162;41.600;23.806;2023-07-13T02:32:19;95511.25;;;18.51;100.00
20003;BME280;10162;41.600;23.806;2023-07-13T02:37:53;95498.22;;;18.61;100.00
20003;BME280;10162;41.600;23.806;2023-07-13T02:40:19;95517.72;;;18.83;100.00
20003;BME280;10162;41.600;23.806;2023-07-13T02:42:45;95493.66;;;18.33;100.00
20003;BME280;10162;41.600;23.806;2023-07-13T02:45:10;95506.75;;;18.40;100.00
20003;BME280;10162;41.600;23.806;2023-07-13T02:47:39;95493.16;;;18.48;100.00
20003;BME280;10162;41.600;23.806;2023-07-13T02:50:05;95509.56;;;18.22;100.00
20003;BME280;10162;41.600;23.806;2023-07-13T02:52:33;95513.84;;;18.63;100.00
20003;BME280;10162;41.600;23.806;2023-07-13T02:58:52;95502.16;;;18.35;100.00
20003;BME280;10162;41.600;23.806;2023-07-13T03:01:21;95517.31;;;18.51;100.00
20003;BME280;10162;41.600;23.806;2023-07-13T03:04:01;95513.38;;;18.77;100.00
20003;BME280;10162;41.600;23.806;2023-07-13T03:06:31;95523.19;;;18.65;100.00
20003;BME280;10162;41.600;23.806;2023-07-13T03:08:57;95500.91;;;18.38;100.00
20003;BME280;10162;41.600;23.806;2023-07-13T03:11:23;95516.69;;;18.33;100.00
20003;BME280;10162;41.600;23.806;2023-07-13T03:17:50;95501.34;;;18.58;100.00
20003;BME280;10162;41.600;23.806;2023-07-13T03:20:16;95503.44;;;18.33;100.00
20003;BME280;10162;41.600;23.806;2023-07-13T03:26:36;95525.91;;;18.07;100.00
20003;BME280;10162;41.600;23.806;2023-07-13T03:29:03;95514.63;;;18.75;100.00
20003;BME280;10162;41.600;23.806;2023-07-13T03:31:33;95530.84;;;18.38;100.00
20003;BME280;10162;41.600;23.806;2023-07-13T03:37:53;95540.41;;;18.28;100.00
20003;BME280;10162;41.600;23.806;2023-07-13T03:40:20;95533.44;;;18.73;100.00
20003;BME280;10162;41.600;23.806;2023-07-13T03:43:09;95544.94;;;18.79;100.00
20003;BME280;10162;41.600;23.806;2023-07-13T03:45:37;95519.06;;;18.86;100.00
20003;BME280;10162;41.600;23.806;2023-07-13T03:48:04;95530.56;;;18.91;100.00
20003;BME280;10162;41.600;23.806;2023-07-13T03:50:31;95533.03;;;19.10;100.00
20003;BME280;10162;41.600;23.806;2023-07-13T03:56:05;95553.78;;;19.13;100.00
20003;BME280;10162;41.600;23.806;2023-07-13T03:58:34;95527.06;;;19.03;100.00
20003;BME280;10162;41.600;23.806;2023-07-13T04:01:10;95546.97;;;19.17;100.00
20003;BME280;10162;41.600;23.806;2023-07-13T04:06:31;95550.81;;;19.26;100.00
20003;BME280;10162;41.600;23.806;2023-07-13T04:09:00;95567.53;;;19.71;100.00
20003;BME280;10162;41.600;23.806;2023-07-13T04:11:30;95527.44;;;19.51;100.00
20003;BME280;10162;41.600;23.806;2023-07-13T04:16:56;95552.09;;;20.02;100.00
20003;BME280;10162;41.600;23.806;2023-07-13T04:19:23;95555.31;;;20.37;100.00
20003;BME280;10162;41.600;23.806;2023-07-13T04:21:49;95542.56;;;20.39;100.00
20003;BME280;10162;41.600;23.806;2023-07-13T04:27:25;95558.16;;;20.74;100.00
20003;BME280;10162;41.600;23.806;2023-07-13T04:29:50;95550.19;;;20.74;100.00
20003;BME280;10162;41.600;23.806;2023-07-13T04:32:17;95544.06;;;20.95;100.00
20003;BME280;10162;41.600;23.806;2023-07-13T04:35:18;95562.34;;;21.35;100.00
20003;BME280;10162;41.600;23.806;2023-07-13T04:37:47;95533.66;;;21.42;100.00
20003;BME280;10162;41.600;23.806;2023-07-13T04:40:14;95550.97;;;21.45;100.00
20003;BME280;10162;41.600;23.806;2023-07-13T04:42:40;95538.28;;;21.52;100.00
20003;BME280;10162;41.600;23.806;2023-07-13T04:45:07;95543.97;;;21.66;100.00
20003;BME280;10162;41.600;23.806;2023-07-13T04:47:33;95554.66;;;21.71;100.00
20003;BME280;10162;41.600;23.806;2023-07-13T04:49:58;95553.75;;;21.87;100.00
20003;BME280;10162;41.600;23.806;2023-07-13T04:52:25;95536.19;;;21.91;100.00
20003;BME280;10162;41.600;23.806;2023-07-13T04:54:59;95556.13;;;22.20;100.00
20003;BME280;10162;41.600;23.806;2023-07-13T04:57:27;95561.22;;;22.27;100.00
20003;BME280;10162;41.600;23.806;2023-07-13T04:59:53;95565.28;;;22.40;100.00
20003;BME280;10162;41.600;23.806;2023-07-13T05:02:23;95551.09;;;22.24;100.00
20003;BME280;10162;41.600;23.806;2023-07-13T05:08:43;95572.53;;;22.96;100.00
20003;BME280;10162;41.600;23.806;2023-07-13T05:11:09;95564.81;;;23.00;100.00
20003;BME280;10162;41.600;23.806;2023-07-13T05:17:28;95568.13;;;22.70;100.00
20003;BME280;10162;41.600;23.806;2023-07-13T05:19:56;95559.47;;;22.95;100.00
20003;BME280;10162;41.600;23.806;2023-07-13T05:22:21;95557.34;;;23.07;100.00
20003;BME280;10162;41.600;23.806;2023-07-13T05:27:48;95556.06;;;23.25;100.00
20003;BME280;10162;41.600;23.806;2023-07-13T05:30:14;95563.56;;;23.23;100.00
20003;BME280;10162;41.600;23.806;2023-07-13T05:38:13;95581.78;;;23.46;100.00
20003;BME280;10162;41.600;23.806;2023-07-13T05:40:39;95569.16;;;23.26;100.00
20003;BME280;10162;41.600;23.806;2023-07-13T05:43:09;95589.50;;;23.53;100.00
20003;BME280;10162;41.600;23.806;2023-07-13T05:45:36;95570.78;;;23.42;100.00
20003;BME280;10162;41.600;23.806;2023-07-13T05:48:02;95574.09;;;23.75;100.00
20003;BME280;10162;41.600;23.806;2023-07-13T05:50:28;95593.56;;;24.01;100.00
20003;BME280;10162;41.600;23.806;2023-07-13T05:56:47;95571.13;;;23.81;100.00
20003;BME280;10162;41.600;23.806;2023-07-13T05:59:14;95575.69;;;24.26;98.55
20003;BME280;10162;41.600;23.806;2023-07-13T06:01:41;95583.63;;;24.62;96.90
20003;BME280;10162;41.600;23.806;2023-07-13T06:08:01;95571.38;;;24.46;96.31
20003;BME280;10162;41.600;23.806;2023-07-13T06:10:26;95561.50;;;24.36;96.45
20003;BME280;10162;41.600;23.806;2023-07-13T06:31:09;95528.59;;;25.20;84.13
20003;BME280;10162;41.600;23.806;2023-07-13T06:37:32;95529.69;;;25.58;78.94
20003;BME280;10162;41.600;23.806;2023-07-13T06:39:59;95553.72;;;25.73;78.44
20003;BME280;10162;41.600;23.806;2023-07-13T06:42:26;95553.44;;;26.04;77.44
20003;BME280;10162;41.600;23.806;2023-07-13T06:44:52;95548.34;;;26.07;76.45
20003;BME280;10162;41.600;23.806;2023-07-13T06:47:21;95530.72;;;26.01;75.06
20003;BME280;10162;41.600;23.806;2023-07-13T06:49:47;95523.03;;;26.18;73.49
20003;BME280;10162;41.600;23.806;2023-07-13T06:52:15;95540.72;;;26.19;73.59
20003;BME280;10162;41.600;23.806;2023-07-13T06:54:41;95544.03;;;26.40;72.71
20003;BME280;10162;41.600;23.806;2023-07-13T06:57:06;95532.50;;;26.63;71.03
20003;BME280;10162;41.600;23.806;2023-07-13T06:59:33;95531.66;;;26.68;70.87
20003;BME280;10162;41.600;23.806;2023-07-13T07:02:04;95558.31;;;27.07;69.80
20003;BME280;10162;41.600;23.806;2023-07-13T07:04:30;95546.00;;;27.25;68.95
20003;BME280;10162;41.600;23.806;2023-07-13T07:06:56;95547.88;;;26.82;70.43
20003;BME280;10162;41.600;23.806;2023-07-13T07:09:22;95540.44;;;26.50;73.03
20003;BME280;10162;41.600;23.806;2023-07-13T07:16:05;95546.69;;;27.73;68.17
20003;BME280;10162;41.600;23.806;2023-07-13T07:18:32;95549.06;;;27.74;67.44
20003;BME280;10162;41.600;23.806;2023-07-13T07:20:58;95538.88;;;27.90;65.28
20003;BME280;10162;41.600;23.806;2023-07-13T07:23:25;95523.25;;;27.92;65.04
20003;BME280;10162;41.600;23.806;2023-07-13T07:25:51;95535.25;;;27.81;63.08
20003;BME280;10162;41.600;23.806;2023-07-13T07:28:21;95547.03;;;27.85;61.01
20003;BME280;10162;41.600;23.806;2023-07-13T07:30:48;95528.22;;;28.17;61.84
20003;BME280;10162;41.600;23.806;2023-07-13T07:33:14;95551.81;;;28.53;63.84
20003;BME280;10162;41.600;23.806;2023-07-13T07:35:42;95539.22;;;28.34;63.50
20003;BME280;10162;41.600;23.806;2023-07-13T07:40:43;95536.44;;;28.07;63.37
20003;BME280;10162;41.600;23.806;2023-07-13T07:46:45;95513.81;;;28.54;58.09
20003;BME280;10162;41.600;23.806;2023-07-13T07:49:10;95512.41;;;28.43;58.03
20003;BME280;10162;41.600;23.806;2023-07-13T11:11:34;95366.47;;;35.38;37.46
20003;BME280;10162;41.600;23.806;2023-07-13T11:14:03;95341.38;;;35.16;38.63
20003;BME280;10162;41.600;23.806;2023-07-13T11:20:35;95355.53;;;35.22;38.30
20003;BME280;10162;41.600;23.806;2023-07-13T11:26:56;95344.81;;;35.69;37.21
20003;BME280;10162;41.600;23.806;2023-07-13T11:35:03;95333.81;;;35.66;35.37
20003;BME280;10162;41.600;23.806;2023-07-13T11:37:29;95315.38;;;35.59;35.08
20003;BME280;10162;41.600;23.806;2023-07-13T11:39:56;95312.69;;;36.06;35.92
20003;BME280;10162;41.600;23.806;2023-07-13T11:45:31;95312.63;;;35.71;35.50
20003;BME280;10162;41.600;23.806;2023-07-13T11:47:57;95315.25;;;35.99;35.77
20003;BME280;10162;41.600;23.806;2023-07-13T11:50:29;95312.59;;;36.34;34.65
20003;BME280;10162;41.600;23.806;2023-07-13T11:53:01;95310.06;;;36.25;33.95
20003;BME280;10162;41.600;23.806;2023-07-13T11:55:29;95299.00;;;36.34;35.29
20003;BME280;10162;41.600;23.806;2023-07-13T11:57:59;95286.78;;;36.12;34.67
20003;BME280;10162;41.600;23.806;2023-07-13T12:00:29;95313.16;;;36.59;33.63
20003;BME280;10162;41.600;23.806;2023-07-13T12:06:15;95288.06;;;36.84;33.76
20003;BME280;10162;41.600;23.806;2023-07-13T12:08:45;95307.31;;;36.76;32.24
20003;BME280;10162;41.600;23.806;2023-07-13T12:11:16;95295.56;;;36.91;33.10
20003;BME280;10162;41.600;23.806;2023-07-13T12:25:14;95266.56;;;37.41;32.80
20003;BME280;10162;41.600;23.806;2023-07-13T12:27:51;95251.44;;;37.05;33.32
20003;BME280;10162;41.600;23.806;2023-07-13T12:30:31;95272.63;;;37.11;32.77
20003;BME280;10162;41.600;23.806;2023-07-13T12:33:07;95239.91;;;37.53;31.12
20003;BME280;10162;41.600;23.806;2023-07-13T12:35:46;95246.34;;;37.64;31.86
20003;BME280;10162;41.600;23.806;2023-07-13T12:38:13;95269.53;;;38.00;30.13
20003;BME280;10162;41.600;23.806;2023-07-13T12:40:40;95268.69;;;37.96;31.09
20003;BME280;10162;41.600;23.806;2023-07-13T12:43:14;95264.44;;;38.22;30.78
20003;BME280;10162;41.600;23.806;2023-07-13T12:45:57;95275.66;;;37.94;30.22
20003;BME280;10162;41.600;23.806;2023-07-13T12:48:25;95261.66;;;37.95;30.23
20003;BME280;10162;41.600;23.806;2023-07-13T12:50:53;95271.84;;;37.98;30.48
20003;BME280;10162;41.600;23.806;2023-07-13T12:53:22;95243.22;;;37.43;30.67
20003;BME280;10162;41.600;23.806;2023-07-13T12:59:02;95254.53;;;37.87;31.44
20003;BME280;10162;41.600;23.806;2023-07-13T13:01:33;95256.25;;;38.48;30.16
20003;BME280;10162;41.600;23.806;2023-07-13T13:04:02;95242.81;;;38.39;31.64
20003;BME280;10162;41.600;23.806;2023-07-13T13:09:43;95229.69;;;37.96;29.94
20003;BME280;10162;41.600;23.806;2023-07-13T13:12:15;95217.84;;;38.11;30.39
20003;BME280;10162;41.600;23.806;2023-07-13T13:14:43;95213.06;;;38.31;30.36
20003;BME280;10162;41.600;23.806;2023-07-13T13:20:21;95214.66;;;37.83;32.31
20003;BME280;10162;41.600;23.806;2023-07-13T13:22:48;95215.28;;;37.50;32.09
20003;BME280;10162;41.600;23.806;2023-07-13T13:28:05;95225.97;;;38.60;29.18
20003;BME280;10162;41.600;23.806;2023-07-13T13:30:30;95213.78;;;38.28;27.14
20003;BME280;10162;41.600;23.806;2023-07-13T13:32:57;95216.88;;;38.00;27.76
20003;BME280;10162;41.600;23.806;2023-07-13T13:39:21;95231.81;;;38.62;27.95
20003;BME280;10162;41.600;23.806;2023-07-13T13:41:50;95215.78;;;38.91;27.51
20003;BME280;10162;41.600;23.806;2023-07-13T13:44:17;95219.69;;;38.90;28.68
20003;BME280;10162;41.600;23.806;2023-07-13T13:50:54;95211.47;;;38.90;28.44
20003;BME280;10162;41.600;23.806;2023-07-13T13:53:31;95208.25;;;39.54;26.74
20003;BME280;10162;41.600;23.806;2023-07-13T13:56:10;95218.69;;;39.01;28.33
20003;BME280;10162;41.600;23.806;2023-07-13T13:58:39;95188.78;;;39.63;26.83
20003;BME280;10162;41.600;23.806;2023-07-13T14:04:17;95212.16;;;39.13;27.62
20003;BME280;10162;41.600;23.806;2023-07-13T14:06:56;95189.59;;;39.23;27.12
20003;BME280;10162;41.600;23.806;2023-07-13T14:09:23;95207.06;;;39.52;26.54
20003;BME280;10162;41.600;23.806;2023-07-13T14:11:50;95211.63;;;39.00;28.11
20003;BME280;10162;41.600;23.806;2023-07-13T14:14:21;95227.44;;;40.02;26.09
20003;BME280;10162;41.600;23.806;2023-07-13T14:21:01;95190.31;;;40.91;26.08
20003;BME280;10162;41.600;23.806;2023-07-13T14:23:32;95169.53;;;40.76;26.44
20003;BME280;10162;41.600;23.806;2023-07-13T14:29:57;95200.28;;;40.41;26.93
20003;BME280;10162;41.600;23.806;2023-07-13T14:36:57;95179.16;;;40.45;26.32
20003;BME280;10162;41.600;23.806;2023-07-13T14:39:54;95203.38;;;38.97;28.94
20003;BME280;10162;41.600;23.806;2023-07-13T14:42:23;95202.63;;;40.39;27.24
20003;BME280;10162;41.600;23.806;2023-07-13T14:44:49;95176.13;;;39.44;26.79
20003;BME280;10162;41.600;23.806;2023-07-13T14:56:08;95207.59;;;41.02;26.13
20003;BME280;10162;41.600;23.806;2023-07-13T14:59:14;95185.19;;;40.79;26.75
20003;BME280;10162;41.600;23.806;2023-07-13T15:40:41;95207.59;;;41.02;26.03
20003;BME280;10162;41.600;23.806;2023-07-13T16:12:47;95189.34;;;38.68;28.49
20003;BME280;10162;41.600;23.806;2023-07-13T16:15:29;95197.72;;;39.16;29.64
20003;BME280;10162;41.600;23.806;2023-07-13T16:18:01;95183.50;;;37.84;31.04
20003;BME280;10162;41.600;23.806;2023-07-13T16:20:27;95169.09;;;36.73;35.08
20003;BME280;10162;41.600;23.806;2023-07-13T16:51:16;95188.00;;;33.00;43.69
20003;BME280;10162;41.600;23.806;2023-07-13T16:53:42;95179.81;;;32.22;45.78
20003;BME280;10162;41.600;23.806;2023-07-13T17:00:06;95184.50;;;31.84;44.42
20003;BME280;10162;41.600;23.806;2023-07-13T17:02:43;95182.81;;;32.00;41.82
20003;BME280;10162;41.600;23.806;2023-07-13T17:05:12;95179.53;;;31.65;47.02
20003;BME280;10162;41.600;23.806;2023-07-13T17:11:34;95200.66;;;31.16;46.67
20003;BME280;10162;41.600;23.806;2023-07-13T17:14:00;95195.16;;;31.04;49.21
20003;BME280;10162;41.600;23.806;2023-07-13T17:19:41;95185.34;;;30.14;52.16
20003;BME280;10162;41.600;23.806;2023-07-13T17:22:10;95185.69;;;30.29;50.90
20003;BME280;10162;41.600;23.806;2023-07-13T17:24:46;95174.13;;;30.29;49.47
20003;BME280;10162;41.600;23.806;2023-07-13T17:27:32;95170.69;;;29.80;52.96
20003;BME280;10162;41.600;23.806;2023-07-13T17:29:59;95200.75;;;30.13;51.74
20003;BME280;10162;41.600;23.806;2023-07-13T17:32:25;95182.50;;;30.19;47.49
20003;BME280;10162;41.600;23.806;2023-07-13T17:34:52;95174.28;;;30.24;48.60
20003;BME280;10162;41.600;23.806;2023-07-13T17:37:19;95192.91;;;29.86;50.87
20003;BME280;10162;41.600;23.806;2023-07-13T17:39:46;95164.81;;;29.61;51.64
20003;BME280;10162;41.600;23.806;2023-07-13T17:42:12;95182.03;;;29.51;51.09
20003;BME280;10162;41.600;23.806;2023-07-13T17:44:39;95195.66;;;29.46;50.43
20003;BME280;10162;41.600;23.806;2023-07-13T17:51:00;95185.59;;;29.30;54.24
20003;BME280;10162;41.600;23.806;2023-07-13T17:53:26;95178.28;;;28.68;56.27
20003;BME280;10162;41.600;23.806;2023-07-13T17:59:25;95173.47;;;28.34;60.72
20003;BME280;10162;41.600;23.806;2023-07-13T18:01:51;95165.53;;;27.93;56.21
20003;BME280;10162;41.600;23.806;2023-07-13T18:04:18;95189.91;;;28.55;56.46
20003;BME280;10162;41.600;23.806;2023-07-13T18:06:55;95191.94;;;28.27;58.70
20003;BME280;10162;41.600;23.806;2023-07-13T18:09:23;95187.44;;;27.87;60.97
20003;BME280;10162;41.600;23.806;2023-07-13T18:11:49;95196.38;;;27.96;59.74
20003;BME280;10162;41.600;23.806;2023-07-13T18:14:16;95174.53;;;27.48;61.45
20003;BME280;10162;41.600;23.806;2023-07-13T18:16:57;95186.84;;;27.49;60.55
20003;BME280;10162;41.600;23.806;2023-07-13T18:19:38;95181.59;;;27.58;60.31
20003;BME280;10162;41.600;23.806;2023-07-13T18:22:16;95192.53;;;27.47;62.52
20003;BME280;10162;41.600;23.806;2023-07-13T18:24:44;95193.59;;;26.92;64.75
20003;BME280;10162;41.600;23.806;2023-07-13T18:27:11;95222.63;;;27.03;66.10
20003;BME280;10162;41.600;23.806;2023-07-13T18:29:37;95212.94;;;26.89;67.42
20003;BME280;10162;41.600;23.806;2023-07-13T18:32:04;95206.06;;;26.50;70.31
20003;BME280;10162;41.600;23.806;2023-07-13T18:34:37;95214.78;;;26.23;68.39
20003;BME280;10162;41.600;23.806;2023-07-13T18:37:18;95225.91;;;25.93;68.83
20003;BME280;10162;41.600;23.806;2023-07-13T18:39:45;95206.75;;;26.23;66.44
20003;BME280;10162;41.600;23.806;2023-07-13T18:42:11;95228.66;;;26.07;69.98
20003;BME280;10162;41.600;23.806;2023-07-13T18:44:37;95227.69;;;25.98;73.18
20003;BME280;10162;41.600;23.806;2023-07-13T18:47:04;95227.25;;;25.72;70.23
20003;BME280;10162;41.600;23.806;2023-07-13T18:49:31;95233.53;;;25.81;72.86
20003;BME280;10162;41.600;23.806;2023-07-13T18:51:57;95231.19;;;25.98;70.90
20003;BME280;10162;41.600;23.806;2023-07-13T18:54:25;95256.50;;;26.29;70.00
20003;BME280;10162;41.600;23.806;2023-07-13T18:56:57;95247.69;;;25.86;70.78
20003;BME280;10162;41.600;23.806;2023-07-13T18:59:25;95232.75;;;25.62;71.49
20003;BME280;10162;41.600;23.806;2023-07-13T19:01:51;95240.53;;;26.01;69.60
20003;BME280;10162;41.600;23.806;2023-07-13T19:04:28;95259.28;;;26.01;69.09
20003;BME280;10162;41.600;23.806;2023-07-13T19:06:57;95247.63;;;25.91;70.04
20003;BME280;10162;41.600;23.806;2023-07-13T19:09:23;95247.56;;;26.15;70.23
20003;BME280;10162;41.600;23.806;2023-07-13T19:11:51;95240.34;;;25.26;76.63
20003;BME280;10162;41.600;23.806;2023-07-13T19:14:20;95252.50;;;25.13;78.01
20003;BME280;10162;41.600;23.806;2023-07-13T19:16:58;95249.31;;;25.35;76.78
20003;BME280;10162;41.600;23.806;2023-07-13T19:19:24;95272.91;;;25.33;77.85
20003;BME280;10162;41.600;23.806;2023-07-13T19:21:51;95278.44;;;24.79;79.82
20003;BME280;10162;41.600;23.806;2023-07-13T19:24:21;95279.25;;;25.13;77.01
20003;BME280;10162;41.600;23.806;2023-07-13T19:27:00;95276.31;;;24.81;81.90
20003;BME280;10162;41.600;23.806;2023-07-13T19:29:28;95269.09;;;24.81;80.17
20003;BME280;10162;41.600;23.806;2023-07-13T19:31:57;95258.13;;;24.83;78.59
20003;BME280;10162;41.600;23.806;2023-07-13T19:34:26;95272.44;;;25.26;76.11
20003;BME280;10162;41.600;23.806;2023-07-13T19:37:26;95283.78;;;25.41;76.91
20003;BME280;10162;41.600;23.806;2023-07-13T19:39:52;95276.13;;;25.30;76.81
20003;BME280;10162;41.600;23.806;2023-07-13T19:42:41;95286.88;;;25.53;76.51
20003;BME280;10162;41.600;23.806;2023-07-13T19:45:18;95261.25;;;24.56;77.94
20003;BME280;10162;41.600;23.806;2023-07-13T19:47:51;95286.63;;;24.97;76.21
20003;BME280;10162;41.600;23.806;2023-07-13T19:50:18;95291.00;;;24.88;78.39
20003;BME280;10162;41.600;23.806;2023-07-13T19:52:50;95296.66;;;24.77;81.14
20003;BME280;10162;41.600;23.806;2023-07-13T19:55:19;95266.34;;;24.91;77.80
20003;BME280;10162;41.600;23.806;2023-07-13T19:57:50;95303.31;;;24.40;82.77
20003;BME280;10162;41.600;23.806;2023-07-13T20:00:21;95298.38;;;24.62;84.89
20003;BME280;10162;41.600;23.806;2023-07-13T20:02:50;95286.28;;;24.70;81.56
20003;BME280;10162;41.600;23.806;2023-07-13T20:05:19;95302.00;;;24.77;82.87
20003;BME280;10162;41.600;23.806;2023-07-13T20:07:50;95270.59;;;24.09;84.83
20003;BME280;10162;41.600;23.806;2023-07-13T20:12:49;95284.56;;;24.01;84.31
20003;BME280;10162;41.600;23.806;2023-07-13T20:15:18;95320.78;;;24.17;85.58
20003;BME280;10162;41.600;23.806;2023-07-13T20:18:13;95331.06;;;24.49;83.10
20003;BME280;10162;41.600;23.806;2023-07-13T20:20:41;95303.91;;;24.37;82.47
20003;BME280;10162;41.600;23.806;2023-07-13T20:23:18;95310.38;;;24.26;83.26
20003;BME280;10162;41.600;23.806;2023-07-13T20:25:52;95284.34;;;24.42;78.37
20003;BME280;10162;41.600;23.806;2023-07-13T20:28:19;95264.63;;;24.72;76.18
20003;BME280;10162;41.600;23.806;2023-07-13T20:30:48;95291.22;;;24.87;78.02
20003;BME280;10162;41.600;23.806;2023-07-13T20:33:23;95305.50;;;25.11;75.33
20003;BME280;10162;41.600;23.806;2023-07-13T20:36:04;95306.47;;;24.91;78.98
20003;BME280;10162;41.600;23.806;2023-07-13T20:38:34;95309.31;;;24.61;77.29
20003;BME280;10162;41.600;23.806;2023-07-13T20:41:01;95322.56;;;24.81;77.29
20003;BME280;10162;41.600;23.806;2023-07-13T20:43:28;95331.75;;;24.70;75.41
20003;BME280;10162;41.600;23.806;2023-07-13T20:46:13;95282.59;;;24.61;74.99
